createdAt,value
2019-01-04T00:00:31.703Z,75.20
2019-01-04T00:03:00.724Z,75.40
2019-01-04T00:05:29.973Z,75.30
2019-01-04T00:07:58.894Z,74.50
2019-01-04T00:10:27.984Z,74.30
2019-01-04T00:12:57.040Z,74.40
2019-01-04T00:15:25.977Z,74.90
2019-01-04T00:17:55.127Z,76.10
2019-01-04T00:20:24.026Z,74.80
2019-01-04T00:22:53.161Z,74.70
2019-01-04T00:25:22.585Z,74.80
2019-01-04T00:27:51.694Z,75.10
2019-01-04T00:30:20.833Z,75.40
2019-01-04T00:32:50.042Z,75.40
2019-01-04T00:35:19.400Z,76.10
2019-01-04T00:37:48.575Z,76.00
2019-01-04T00:40:18.436Z,76.10
2019-01-04T00:42:47.419Z,75.40
2019-01-04T00:45:16.635Z,75.40
2019-01-04T00:47:45.822Z,75.20
2019-01-04T00:50:14.892Z,75.70
2019-01-04T00:52:43.943Z,75.50
2019-01-04T00:55:28.081Z,75.20
2019-01-04T00:58:12.100Z,75.20
2019-01-04T01:06:16.029Z,75.40
2019-01-04T01:09:20.052Z,76.10
2019-01-04T01:12:12.011Z,75.90
2019-01-04T01:14:53.105Z,76.30
2019-01-04T01:17:41.388Z,76.20
2019-01-04T01:20:18.811Z,75.60
2019-01-04T01:23:23.645Z,75.40
2019-01-04T01:26:04.450Z,76.10
2019-01-04T01:28:48.488Z,75.20
2019-01-04T01:31:29.380Z,75.40
2019-01-04T01:34:13.720Z,76.10
2019-01-04T01:36:54.540Z,75.30
2019-01-04T01:39:57.848Z,75.40
2019-01-04T01:42:47.451Z,75.40
2019-01-04T01:45:22.650Z,75.70
2019-01-04T01:47:51.802Z,76.20
2019-01-04T01:50:29.660Z,75.90
2019-01-04T01:55:28.925Z,75.70
2019-01-04T01:57:58.098Z,76.00
2019-01-04T02:00:29.754Z,75.80
2019-01-04T02:02:58.639Z,75.80
2019-01-04T02:05:27.773Z,76.20
2019-01-04T02:07:56.660Z,76.30
2019-01-04T02:10:25.549Z,76.40
2019-01-04T02:12:54.641Z,77.10
2019-01-04T02:17:52.077Z,76.30
2019-01-04T02:20:21.463Z,76.50
2019-01-04T02:22:50.751Z,76.80
2019-01-04T02:25:20.143Z,76.80
2019-01-04T02:27:49.632Z,76.80
2019-01-04T02:30:19.026Z,77.20
2019-01-04T02:32:48.235Z,77.80
2019-01-04T02:35:17.530Z,77.10
2019-01-04T02:37:46.824Z,77.00
2019-01-04T02:40:15.794Z,77.20
2019-01-04T02:45:13.593Z,77.10
2019-01-04T02:47:42.667Z,77.20
2019-01-04T02:50:11.758Z,77.40
2019-01-04T02:52:40.651Z,78.00
2019-01-04T02:57:38.623Z,77.80
2019-01-04T03:00:09.450Z,77.40
2019-01-04T03:05:34.884Z,77.70
2019-01-04T03:08:03.725Z,78.60
2019-01-04T03:15:29.846Z,76.90
2019-01-04T03:17:58.837Z,77.20
2019-01-04T03:20:28.015Z,76.90
2019-01-04T03:22:57.265Z,77.10
2019-01-04T03:25:26.288Z,77.30
2019-01-04T03:27:55.440Z,77.50
2019-01-04T03:30:24.781Z,77.30
2019-01-04T03:32:53.648Z,77.30
2019-01-04T03:35:23.028Z,77.30
2019-01-04T03:37:52.007Z,78.00
2019-01-04T03:40:21.105Z,77.80
2019-01-04T03:42:50.087Z,77.90
2019-01-04T03:45:19.405Z,78.10
2019-01-04T03:47:48.827Z,78.20
2019-01-04T03:50:18.064Z,78.40
2019-01-04T03:52:47.126Z,78.20
2019-01-04T03:55:16.062Z,78.30
2019-01-04T03:57:45.321Z,78.50
2019-01-04T04:00:14.352Z,78.50
2019-01-04T04:03:02.648Z,77.60
2019-01-04T04:05:31.575Z,77.70
2019-01-04T04:08:00.480Z,77.60
2019-01-04T04:12:58.181Z,77.50
2019-01-04T04:15:27.238Z,77.60
2019-01-04T04:17:56.301Z,77.90
2019-01-04T04:20:25.070Z,78.40
2019-01-04T04:22:54.001Z,78.70
2019-01-04T04:25:23.485Z,78.70
2019-01-04T04:27:52.397Z,79.10
2019-01-04T04:30:21.726Z,79.00
2019-01-04T04:32:50.795Z,78.60
2019-01-04T04:35:19.711Z,78.30
2019-01-04T04:37:52.362Z,77.90
2019-01-04T04:40:21.555Z,78.10
2019-01-04T04:45:19.599Z,78.00
2019-01-04T04:50:16.983Z,78.10
2019-01-04T04:52:46.058Z,78.20
2019-01-04T04:55:15.044Z,78.40
2019-01-04T04:57:43.839Z,79.10
2019-01-04T05:00:12.949Z,79.50
2019-01-04T05:02:41.727Z,79.50
2019-01-04T05:05:10.706Z,80.00
2019-01-04T05:07:40.049Z,80.20
2019-01-04T05:10:09.325Z,80.00
2019-01-04T05:12:39.481Z,80.10
2019-01-04T05:15:08.728Z,80.10
2019-01-04T05:17:37.717Z,80.20
2019-01-04T05:20:06.618Z,80.50
2019-01-04T05:22:36.003Z,81.10
2019-01-04T05:25:04.900Z,80.80
2019-01-04T05:27:33.933Z,81.00
2019-01-04T05:30:03.603Z,81.60
2019-01-04T05:32:32.418Z,82.00
2019-01-04T05:35:01.403Z,82.20
2019-01-04T05:37:30.574Z,82.40
2019-01-04T05:39:59.415Z,82.10
2019-01-04T05:42:28.361Z,82.20
2019-01-04T05:44:57.239Z,82.30
2019-01-04T05:47:26.322Z,82.40
2019-01-04T05:49:55.252Z,83.10
2019-01-04T05:52:24.288Z,83.20
2019-01-04T05:54:53.674Z,83.20
2019-01-04T05:57:22.503Z,83.30
2019-01-04T05:59:51.941Z,82.70
2019-01-04T06:02:20.917Z,82.80
2019-01-04T06:04:50.133Z,82.90
2019-01-04T06:07:19.597Z,84.30
2019-01-04T06:09:48.632Z,83.10
2019-01-04T06:12:17.560Z,83.00
2019-01-04T06:17:15.647Z,83.10
2019-01-04T06:19:44.522Z,83.00
2019-01-04T06:22:13.449Z,83.30
2019-01-04T06:24:42.371Z,83.40
2019-01-04T06:27:11.321Z,83.50
2019-01-04T06:29:40.570Z,84.10
2019-01-04T06:32:09.413Z,84.20
2019-01-04T06:34:38.544Z,85.00
2019-01-04T06:37:07.559Z,84.30
2019-01-04T06:39:39.447Z,83.90
2019-01-04T06:42:08.535Z,84.60
2019-01-04T06:47:10.890Z,84.30
2019-01-04T06:49:39.782Z,84.30
2019-01-04T06:52:08.952Z,84.30
2019-01-04T06:55:14.518Z,85.00
2019-01-04T06:57:43.399Z,84.90
2019-01-04T07:00:12.342Z,84.40
2019-01-04T07:02:41.620Z,84.40
2019-01-04T07:05:11.962Z,85.10
2019-01-04T07:07:40.969Z,85.20
2019-01-04T07:10:31.553Z,85.10
2019-01-04T07:13:00.394Z,84.70
2019-01-04T07:15:29.347Z,84.60
2019-01-04T07:17:58.705Z,85.30
2019-01-04T07:20:27.663Z,84.80
2019-01-04T07:22:56.759Z,84.70
2019-01-04T07:25:26.052Z,84.90
2019-01-04T07:27:54.919Z,86.10
2019-01-04T07:30:23.986Z,84.90
2019-01-04T07:32:53.158Z,85.00
2019-01-04T07:35:22.012Z,85.60
2019-01-04T07:37:51.057Z,85.80
2019-01-04T07:40:20.428Z,86.20
2019-01-04T07:42:49.733Z,86.10
2019-01-04T07:45:19.603Z,86.30
2019-01-04T07:47:48.750Z,86.50
2019-01-04T07:50:17.517Z,86.30
2019-01-04T07:52:46.618Z,86.50
2019-01-04T07:55:16.258Z,86.70
2019-01-04T07:57:45.179Z,86.80
2019-01-04T08:00:14.514Z,87.00
2019-01-04T08:07:42.220Z,87.70
2019-01-04T08:10:11.278Z,87.70
2019-01-04T08:12:40.410Z,87.80
2019-01-04T08:15:10.731Z,88.00
2019-01-04T08:20:10.645Z,88.20
2019-01-04T08:22:39.594Z,88.90
2019-01-04T08:25:09.123Z,88.90
2019-01-04T08:27:38.082Z,89.00
2019-01-04T08:30:09.985Z,89.20
2019-01-04T08:32:38.891Z,89.20
2019-01-04T08:35:07.959Z,88.90
2019-01-04T08:37:36.957Z,89.10
2019-01-04T08:40:08.608Z,89.00
2019-01-04T08:42:37.538Z,89.00
2019-01-04T08:45:07.951Z,89.20
2019-01-04T08:47:36.869Z,89.80
2019-01-04T08:50:26.597Z,89.30
2019-01-04T08:52:55.452Z,89.30
2019-01-04T08:55:24.694Z,89.40
2019-01-04T09:00:22.119Z,89.50
2019-01-04T09:02:52.543Z,90.10
2019-01-04T09:05:21.677Z,89.80
2019-01-04T09:07:50.931Z,89.70
2019-01-04T09:10:20.014Z,89.60
2019-01-04T09:12:49.412Z,89.60
2019-01-04T09:15:18.719Z,89.40
2019-01-04T09:17:47.660Z,89.40
2019-01-04T09:20:16.644Z,89.30
2019-01-04T09:22:45.663Z,89.20
2019-01-04T09:25:14.620Z,89.80
2019-01-04T09:27:43.779Z,89.00
2019-01-04T09:30:12.960Z,89.60
2019-01-04T09:32:42.734Z,89.50
2019-01-04T09:35:11.923Z,89.50
2019-01-04T09:37:40.768Z,89.50
2019-01-04T09:40:10.268Z,89.50
2019-01-04T09:42:39.290Z,89.50
2019-01-04T09:45:09.251Z,89.60
2019-01-04T09:47:38.393Z,89.60
2019-01-04T09:50:08.541Z,89.60
2019-01-04T09:52:37.480Z,89.60
2019-01-04T09:55:07.171Z,89.50
2019-01-04T09:57:36.250Z,89.70
2019-01-04T10:00:07.902Z,89.60
2019-01-04T10:02:37.212Z,89.40
2019-01-04T10:05:07.717Z,89.30
2019-01-04T10:07:36.556Z,89.20
2019-01-04T10:10:08.025Z,89.00
2019-01-04T10:12:38.354Z,88.80
2019-01-04T10:15:13.052Z,88.80
2019-01-04T10:17:42.261Z,88.20
2019-01-04T10:20:11.615Z,88.80
2019-01-04T10:22:42.392Z,89.00
2019-01-04T10:25:11.720Z,88.40
2019-01-04T10:27:40.832Z,89.00
2019-01-04T10:30:09.829Z,89.20
2019-01-04T10:32:38.805Z,88.70
2019-01-04T10:35:10.725Z,89.40
2019-01-04T10:37:38.427Z,89.50
2019-01-04T10:40:11.060Z,89.30
2019-01-04T10:42:38.253Z,89.40
2019-01-04T10:45:07.276Z,89.40
2019-01-04T10:47:36.538Z,90.30
2019-01-04T10:50:06.478Z,90.00
2019-01-04T10:55:04.690Z,89.70
2019-01-04T10:57:33.675Z,89.80
2019-01-04T11:00:02.597Z,90.20
2019-01-04T11:02:31.542Z,90.00
2019-01-04T11:05:00.450Z,90.10
2019-01-04T11:07:29.273Z,90.10
2019-01-04T11:09:58.532Z,90.10
2019-01-04T11:12:27.403Z,90.20
2019-01-04T11:14:56.386Z,90.20
2019-01-04T11:17:26.046Z,90.30
2019-01-04T11:19:56.424Z,90.30
2019-01-04T11:22:52.788Z,90.40
2019-01-04T11:31:02.760Z,90.60
2019-01-04T11:33:52.628Z,90.70
2019-01-04T11:39:04.777Z,90.80
2019-01-04T11:41:45.727Z,90.80
2019-01-04T11:44:40.536Z,90.90
2019-01-04T11:47:20.081Z,91.00
2019-01-04T11:49:54.942Z,91.20
2019-01-04T11:52:31.170Z,91.30
2019-01-04T11:54:58.246Z,91.10
2019-01-04T11:57:27.226Z,91.20
2019-01-04T11:59:56.145Z,91.30
2019-01-04T12:02:26.423Z,91.60
2019-01-04T12:04:57.302Z,91.40
2019-01-04T12:07:26.434Z,91.40
2019-01-04T12:09:55.432Z,91.50
2019-01-04T12:12:24.383Z,91.80
2019-01-04T12:14:53.522Z,91.60
2019-01-04T12:17:22.464Z,91.70
2019-01-04T12:19:51.553Z,91.70
2019-01-04T12:22:21.103Z,92.00
2019-01-04T12:24:50.274Z,92.00
2019-01-04T12:29:48.725Z,91.80
2019-01-04T12:32:19.070Z,91.90
2019-01-04T12:34:47.985Z,91.90
2019-01-04T12:37:16.922Z,92.10
2019-01-04T12:39:46.786Z,92.30
2019-01-04T12:42:15.628Z,92.30
2019-01-04T12:44:44.742Z,92.30
2019-01-04T12:47:13.913Z,92.10
2019-01-04T12:49:42.816Z,92.40
2019-01-04T12:52:11.913Z,92.20
2019-01-04T12:54:40.815Z,92.20
2019-01-04T12:57:09.758Z,92.20
2019-01-04T12:59:41.274Z,92.20
2019-01-04T13:02:10.153Z,92.70
2019-01-04T13:04:39.155Z,92.50
2019-01-04T13:07:08.488Z,92.50
2019-01-04T13:09:37.356Z,92.50
2019-01-04T13:12:06.292Z,92.20
2019-01-04T13:17:03.736Z,92.20
2019-01-04T13:19:32.638Z,92.20
2019-01-04T13:22:01.673Z,92.20
2019-01-04T13:24:30.533Z,92.20
2019-01-04T13:26:59.402Z,92.20
2019-01-04T13:29:28.521Z,92.20
2019-01-04T13:34:26.195Z,92.10
2019-01-04T13:39:24.025Z,92.10
2019-01-04T13:41:52.801Z,92.40
2019-01-04T13:44:22.378Z,92.10
2019-01-04T13:49:20.150Z,92.10
2019-01-04T13:51:49.560Z,92.20
2019-01-04T13:54:18.997Z,92.10
2019-01-04T13:56:47.912Z,92.10
2019-01-04T13:59:16.844Z,92.10
2019-01-04T14:01:45.990Z,92.10
2019-01-04T14:04:14.916Z,92.10
2019-01-04T14:06:44.956Z,92.40
2019-01-04T14:09:15.407Z,92.10
2019-01-04T14:11:44.564Z,92.10
2019-01-04T14:14:13.512Z,92.10
2019-01-04T14:16:42.311Z,92.10
2019-01-04T14:19:11.221Z,92.10
2019-01-04T14:21:40.296Z,92.10
2019-01-04T14:24:09.251Z,92.00
2019-01-04T14:26:45.245Z,92.00
2019-01-04T14:29:14.379Z,92.00
2019-01-04T14:31:43.386Z,92.00
2019-01-04T14:34:12.536Z,91.90
2019-01-04T14:36:41.545Z,91.90
2019-01-04T14:39:10.514Z,91.90
2019-01-04T14:41:39.505Z,91.90
2019-01-04T14:44:09.091Z,91.90
2019-01-04T14:46:37.990Z,91.90
2019-01-04T14:51:38.623Z,91.90
2019-01-04T14:54:07.436Z,91.80
2019-01-04T14:56:36.809Z,91.80
2019-01-04T14:59:05.726Z,91.80
2019-01-04T15:01:35.036Z,92.20
2019-01-04T15:04:04.562Z,92.10
2019-01-04T15:06:33.835Z,92.10
2019-01-04T15:09:02.761Z,92.10
2019-01-04T15:11:32.154Z,92.10
2019-01-04T15:14:01.041Z,92.10
2019-01-04T15:16:30.231Z,92.00
2019-01-04T15:18:59.373Z,92.00
2019-01-04T15:21:28.486Z,92.00
2019-01-04T15:23:57.483Z,92.00
2019-01-04T15:26:26.546Z,92.10
2019-01-04T15:28:55.362Z,92.10
2019-01-04T15:31:24.438Z,92.10
2019-01-04T15:33:54.819Z,92.10
2019-01-04T15:36:23.746Z,92.10
2019-01-04T15:38:53.268Z,92.10
2019-01-04T15:41:22.367Z,92.20
2019-01-04T15:43:51.632Z,92.20
2019-01-04T15:46:21.042Z,92.20
2019-01-04T15:48:50.206Z,92.30
2019-01-04T15:51:19.433Z,92.00
2019-01-04T15:53:48.586Z,92.00
2019-01-04T15:56:17.998Z,92.20
2019-01-04T15:58:47.422Z,92.20
2019-01-04T16:03:44.928Z,92.00
2019-01-04T16:06:14.190Z,92.00
2019-01-04T16:08:43.108Z,92.00
2019-01-04T16:11:12.100Z,92.00
2019-01-04T16:13:41.050Z,92.00
2019-01-04T16:16:11.846Z,92.00
2019-01-04T16:18:41.259Z,92.00
2019-01-04T16:21:10.148Z,92.30
2019-01-04T16:23:39.202Z,92.30
2019-01-04T16:26:08.678Z,92.10
2019-01-04T16:28:37.915Z,92.10
2019-01-04T16:31:07.012Z,92.10
2019-01-04T16:33:36.193Z,92.10
2019-01-04T16:36:05.058Z,92.10
2019-01-04T16:38:33.895Z,92.10
2019-01-04T16:43:31.367Z,92.10
2019-01-04T16:46:01.148Z,92.40
2019-01-04T16:48:30.349Z,92.20
2019-01-04T16:50:59.628Z,92.20
2019-01-04T16:53:28.396Z,92.20
2019-01-04T16:55:57.533Z,92.50
2019-01-04T16:58:26.869Z,92.20
2019-01-04T17:00:55.890Z,92.20
2019-01-04T17:03:25.093Z,92.20
2019-01-04T17:05:53.960Z,92.20
2019-01-04T17:08:22.829Z,92.20
2019-01-04T17:10:52.135Z,92.30
2019-01-04T17:13:24.229Z,92.30
2019-01-04T17:15:53.188Z,92.30
2019-01-04T17:18:22.488Z,92.30
2019-01-04T17:20:51.561Z,92.60
2019-01-04T17:23:21.066Z,92.40
2019-01-04T17:25:50.109Z,92.50
2019-01-04T17:28:19.694Z,92.50
2019-01-04T17:30:49.065Z,92.50
2019-01-04T17:33:17.954Z,92.60
2019-01-04T17:35:47.522Z,92.80
2019-01-04T17:38:16.787Z,92.80
2019-01-04T17:40:45.838Z,92.90
2019-01-04T17:43:15.181Z,92.90
2019-01-04T17:45:44.331Z,93.00
2019-01-04T17:48:32.513Z,93.00
2019-01-04T17:51:01.771Z,93.00
2019-01-04T17:53:31.045Z,92.90
2019-01-04T17:56:00.142Z,92.90
2019-01-04T17:58:29.363Z,92.90
2019-01-04T18:00:58.657Z,92.90
2019-01-04T18:03:27.578Z,92.90
2019-01-04T18:05:56.831Z,93.00
2019-01-04T18:08:25.819Z,93.00
2019-01-04T18:13:23.495Z,93.10
2019-01-04T18:15:52.571Z,93.20
2019-01-04T18:18:22.141Z,93.20
2019-01-04T18:20:51.545Z,93.20
2019-01-04T18:25:50.687Z,93.30
2019-01-04T18:28:20.271Z,93.20
2019-01-04T18:30:49.669Z,93.20
2019-01-04T18:33:18.811Z,93.20
2019-01-04T18:35:47.737Z,93.20
2019-01-04T18:38:16.814Z,93.30
2019-01-04T18:43:14.571Z,93.20
2019-01-04T18:45:45.371Z,93.20
2019-01-04T18:48:14.409Z,93.20
2019-01-04T18:50:43.781Z,93.20
2019-01-04T18:53:12.854Z,93.20
2019-01-04T18:55:42.325Z,93.20
2019-01-04T18:58:11.427Z,93.20
2019-01-04T19:00:40.598Z,93.20
2019-01-04T19:03:09.705Z,93.20
2019-01-04T19:05:39.054Z,93.20
2019-01-04T19:08:08.145Z,93.30
2019-01-04T19:10:37.079Z,93.50
2019-01-04T19:13:06.105Z,93.50
2019-01-04T19:15:35.119Z,93.60
2019-01-04T19:18:04.275Z,93.60
2019-01-04T19:20:33.269Z,93.60
2019-01-04T19:23:02.344Z,93.60
2019-01-04T19:25:31.314Z,93.60
2019-01-04T19:28:01.143Z,93.60
2019-01-04T19:30:30.402Z,93.30
2019-01-04T19:32:59.396Z,93.30
2019-01-04T19:35:28.564Z,93.30
2019-01-04T19:37:57.505Z,93.60
2019-01-04T19:40:26.835Z,93.40
2019-01-04T19:42:56.148Z,93.40
2019-01-04T19:45:25.046Z,93.40
2019-01-04T19:47:54.011Z,93.30
2019-01-04T19:50:23.942Z,93.30
2019-01-04T19:52:53.304Z,93.30
2019-01-04T19:55:22.188Z,93.30
2019-01-04T19:57:51.639Z,93.20
2019-01-04T20:00:20.922Z,93.10
2019-01-04T20:02:50.417Z,93.10
2019-01-04T20:05:22.782Z,93.30
2019-01-04T20:07:59.266Z,93.30
2019-01-04T20:11:18.316Z,93.00
2019-01-04T20:14:10.324Z,93.00
2019-01-04T20:16:47.167Z,93.00
2019-01-04T20:19:35.229Z,93.10
2019-01-04T20:22:09.066Z,93.20
2019-01-04T20:24:56.316Z,93.10
2019-01-04T20:27:36.282Z,93.20
2019-01-04T20:30:23.535Z,93.20
2019-01-04T20:38:42.649Z,93.20
2019-01-04T20:41:15.974Z,93.20
2019-01-04T20:43:55.870Z,93.30
2019-01-04T20:46:41.815Z,93.30
2019-01-04T20:49:28.816Z,93.20
2019-01-04T20:54:55.201Z,93.40
2019-01-04T21:00:04.823Z,93.30
2019-01-04T21:05:26.769Z,93.30
2019-01-04T21:07:57.392Z,93.40
2019-01-04T21:10:44.160Z,93.40
2019-01-04T21:13:31.164Z,93.40
2019-01-04T21:16:07.573Z,93.40
2019-01-04T21:18:44.158Z,93.40
2019-01-04T21:21:14.675Z,93.40
2019-01-04T21:23:48.756Z,93.40
2019-01-04T21:29:18.018Z,93.40
2019-01-04T21:31:51.276Z,93.40
2019-01-04T21:34:37.271Z,93.40
2019-01-04T21:37:16.472Z,93.40
2019-01-04T21:39:49.999Z,93.40
2019-01-04T21:42:23.340Z,93.40
2019-01-04T21:44:53.946Z,93.40
2019-01-04T21:47:40.964Z,93.40
2019-01-04T21:55:28.471Z,93.40
2019-01-04T21:58:01.649Z,93.70
2019-01-04T22:00:34.852Z,93.40
2019-01-04T22:06:08.045Z,93.40
2019-01-04T22:08:50.696Z,93.60
2019-01-04T22:11:24.046Z,93.40
2019-01-04T22:19:50.518Z,93.40
2019-01-04T22:22:30.300Z,93.70
2019-01-04T22:25:15.742Z,93.50
2019-01-04T22:28:02.619Z,93.40
2019-01-04T22:30:41.920Z,93.40
2019-01-04T22:36:19.777Z,93.40
2019-01-04T22:39:06.639Z,93.40
2019-01-04T22:41:37.321Z,93.50
2019-01-04T22:44:19.705Z,93.50
2019-01-04T22:50:05.135Z,93.50
2019-01-04T22:55:31.520Z,93.50
2019-01-04T22:58:20.830Z,93.50
2019-01-04T23:03:32.131Z,93.60
2019-01-04T23:06:19.249Z,93.60
2019-01-04T23:09:08.461Z,93.60
2019-01-04T23:11:56.448Z,93.60
2019-01-04T23:14:38.784Z,93.60
2019-01-04T23:17:15.200Z,93.70
2019-01-04T23:20:02.130Z,93.70
2019-01-04T23:22:55.136Z,93.70
2019-01-04T23:25:25.931Z,94.40
2019-01-04T23:28:03.155Z,93.80
2019-01-04T23:30:36.225Z,93.80
2019-01-04T23:33:23.210Z,93.80
2019-01-04T23:35:53.912Z,93.80
2019-01-04T23:38:41.135Z,93.80
2019-01-04T23:41:12.001Z,93.90
2019-01-04T23:43:42.839Z,93.90
2019-01-04T23:49:20.125Z,94.00
2019-01-04T23:52:02.980Z,94.00
2019-01-04T23:54:53.080Z,94.00
2019-01-04T23:57:32.432Z,94.10
